createdAt,value
2023-09-16T00:02:06.878Z,71.67
2023-09-16T00:04:34.459Z,71.75
2023-09-16T00:07:03.609Z,71.81
2023-09-16T00:09:33.621Z,71.90
2023-09-16T00:12:01.533Z,72.05
2023-09-16T00:14:30.443Z,71.99
2023-09-16T00:17:00.013Z,72.08
2023-09-16T00:19:27.896Z,72.05
2023-09-16T00:21:56.387Z,72.12
2023-09-16T00:24:24.059Z,71.93
2023-09-16T00:26:51.356Z,71.99
2023-09-16T00:29:19.000Z,71.86
2023-09-16T00:31:46.647Z,71.71
2023-09-16T00:34:14.470Z,71.69
2023-09-16T00:36:42.300Z,71.46
2023-09-16T00:39:10.228Z,71.39
2023-09-16T00:41:38.160Z,71.31
2023-09-16T00:44:05.958Z,71.23
2023-09-16T00:46:33.650Z,71.27
2023-09-16T00:49:01.622Z,71.44
2023-09-16T00:51:29.612Z,71.49
2023-09-16T00:53:58.714Z,71.57
2023-09-16T00:56:28.588Z,71.59
2023-09-16T00:58:58.866Z,71.74
2023-09-16T01:01:27.256Z,71.89
2023-09-16T01:03:55.092Z,72.08
2023-09-16T01:06:23.089Z,72.24
2023-09-16T01:08:51.513Z,72.46
2023-09-16T01:11:18.920Z,72.55
2023-09-16T01:13:50.032Z,72.64
2023-09-16T01:16:37.685Z,72.79
2023-09-16T01:19:22.823Z,72.86
2023-09-16T01:21:51.474Z,72.92
2023-09-16T01:24:25.602Z,73.01
2023-09-16T01:26:53.381Z,72.99
2023-09-16T01:29:21.702Z,73.07
2023-09-16T01:31:49.906Z,72.79
2023-09-16T01:34:25.869Z,72.62
2023-09-16T01:36:57.403Z,72.52
2023-09-16T01:39:30.149Z,72.51
2023-09-16T01:41:59.986Z,72.51
2023-09-16T01:44:27.795Z,72.46
2023-09-16T01:46:56.678Z,72.49
2023-09-16T01:49:24.832Z,72.48
2023-09-16T01:51:52.847Z,72.50
2023-09-16T01:54:20.366Z,72.52
2023-09-16T01:56:48.887Z,72.53
2023-09-16T01:59:16.573Z,72.56
2023-09-16T02:01:45.764Z,72.57
2023-09-16T02:04:14.180Z,72.64
2023-09-16T02:06:43.699Z,72.66
2023-09-16T02:09:12.262Z,72.71
2023-09-16T02:11:40.189Z,72.73
2023-09-16T02:14:12.243Z,72.86
2023-09-16T02:16:40.956Z,72.97
2023-09-16T02:19:08.687Z,73.09
2023-09-16T02:21:36.469Z,73.12
2023-09-16T02:24:04.996Z,73.13
2023-09-16T02:26:32.693Z,73.06
2023-09-16T02:29:00.404Z,73.02
2023-09-16T02:31:28.398Z,72.95
2023-09-16T02:34:01.058Z,72.97
2023-09-16T02:36:29.112Z,72.90
2023-09-16T02:38:56.582Z,72.82
2023-09-16T02:41:24.405Z,72.68
2023-09-16T02:43:52.142Z,72.73
2023-09-16T02:46:20.194Z,72.55
2023-09-16T02:48:48.488Z,72.62
2023-09-16T02:51:16.884Z,72.58
2023-09-16T02:53:44.713Z,72.55
2023-09-16T02:56:12.611Z,72.53
2023-09-16T02:58:40.594Z,72.61
2023-09-16T03:01:10.873Z,72.63
2023-09-16T03:03:40.888Z,72.70
2023-09-16T03:06:08.890Z,72.69
2023-09-16T03:08:36.618Z,72.65
2023-09-16T03:11:06.211Z,72.75
2023-09-16T03:13:35.537Z,72.74
2023-09-16T03:16:24.557Z,72.75
2023-09-16T03:18:54.589Z,72.75
2023-09-16T03:21:25.684Z,72.73
2023-09-16T03:23:55.382Z,72.70
2023-09-16T03:26:23.867Z,72.63
2023-09-16T03:28:55.572Z,72.58
2023-09-16T03:31:24.983Z,72.53
2023-09-16T03:33:53.296Z,72.52
2023-09-16T03:36:22.947Z,72.41
2023-09-16T03:38:52.155Z,72.25
2023-09-16T03:41:20.274Z,72.03
2023-09-16T03:43:55.667Z,71.94
2023-09-16T03:46:24.795Z,71.80
2023-09-16T03:48:53.420Z,71.70
2023-09-16T03:51:22.814Z,71.67
2023-09-16T03:53:51.478Z,71.53
2023-09-16T03:56:26.420Z,71.56
2023-09-16T03:58:56.312Z,71.53
2023-09-16T04:01:27.078Z,71.53
2023-09-16T04:03:56.367Z,71.62
2023-09-16T04:06:27.717Z,71.71
2023-09-16T04:08:56.029Z,71.74
2023-09-16T04:11:24.622Z,71.75
2023-09-16T04:13:52.347Z,71.73
2023-09-16T04:16:20.325Z,71.82
2023-09-16T04:18:49.247Z,71.97
2023-09-16T04:21:17.478Z,72.15
2023-09-16T04:23:45.453Z,72.21
2023-09-16T04:26:15.049Z,72.43
2023-09-16T04:28:44.078Z,72.49
2023-09-16T04:31:11.855Z,72.53
2023-09-16T04:33:41.336Z,72.58
2023-09-16T04:36:09.845Z,72.50
2023-09-16T04:38:38.531Z,72.46
2023-09-16T04:41:06.403Z,72.31
2023-09-16T04:43:34.212Z,72.20
2023-09-16T04:46:03.140Z,72.07
2023-09-16T04:48:36.576Z,71.84
2023-09-16T04:51:05.176Z,71.75
2023-09-16T04:53:32.965Z,71.73
2023-09-16T04:56:02.009Z,71.60
2023-09-16T04:58:31.970Z,71.55
2023-09-16T05:01:00.994Z,71.34
2023-09-16T05:03:29.799Z,71.40
2023-09-16T05:05:57.684Z,71.44
2023-09-16T05:08:27.636Z,71.54
2023-09-16T05:10:56.560Z,71.51
2023-09-16T05:13:24.895Z,71.44
2023-09-16T05:15:53.916Z,71.41
2023-09-16T05:18:21.505Z,71.37
2023-09-16T05:20:52.947Z,71.33
2023-09-16T05:23:22.586Z,71.32
2023-09-16T05:25:51.642Z,71.26
2023-09-16T05:28:21.218Z,71.26
2023-09-16T05:30:49.362Z,71.30
2023-09-16T05:33:17.840Z,71.36
2023-09-16T05:35:47.095Z,71.35
2023-09-16T05:38:14.941Z,71.31
2023-09-16T05:40:42.710Z,71.11
2023-09-16T05:43:10.496Z,70.89
2023-09-16T05:45:38.709Z,70.64
2023-09-16T05:48:06.955Z,70.25
2023-09-16T05:50:36.263Z,69.86
2023-09-16T05:53:05.255Z,69.47
2023-09-16T05:55:35.066Z,69.18
2023-09-16T05:58:06.380Z,68.98
2023-09-16T06:00:34.225Z,68.54
2023-09-16T06:03:02.069Z,68.26
2023-09-16T06:05:30.973Z,68.09
2023-09-16T06:08:00.557Z,67.89
2023-09-16T06:10:28.623Z,67.73
2023-09-16T06:12:56.268Z,67.01
2023-09-16T06:15:24.239Z,66.79
2023-09-16T06:17:51.753Z,66.29
2023-09-16T06:20:19.305Z,66.15
2023-09-16T06:22:46.908Z,65.68
2023-09-16T06:25:16.280Z,65.43
2023-09-16T06:27:43.869Z,65.03
2023-09-16T06:30:12.671Z,64.44
2023-09-16T06:32:43.685Z,64.08
2023-09-16T06:35:11.973Z,62.91
2023-09-16T06:37:39.984Z,62.76
2023-09-16T06:40:08.428Z,62.86
2023-09-16T06:42:36.149Z,62.38
2023-09-16T06:45:04.618Z,62.24
2023-09-16T06:47:32.472Z,61.83
2023-09-16T06:50:02.104Z,61.61
2023-09-16T06:52:29.875Z,61.14
2023-09-16T06:54:57.779Z,61.23
2023-09-16T06:57:25.462Z,60.79
2023-09-16T06:59:53.526Z,60.39
2023-09-16T07:02:24.433Z,60.54
2023-09-16T07:04:52.336Z,60.27
2023-09-16T07:07:21.685Z,60.19
2023-09-16T07:09:49.044Z,60.29
2023-09-16T07:12:16.665Z,60.05
2023-09-16T07:14:44.292Z,59.82
2023-09-16T07:17:11.907Z,59.93
2023-09-16T07:19:41.057Z,60.00
2023-09-16T07:22:08.758Z,60.13
2023-09-16T07:24:39.197Z,59.92
2023-09-16T07:27:06.749Z,59.97
2023-09-16T07:29:34.341Z,60.33
2023-09-16T07:32:02.775Z,60.31
2023-09-16T07:34:31.206Z,60.58
2023-09-16T07:36:59.532Z,60.32
2023-09-16T07:39:27.163Z,59.96
2023-09-16T07:41:54.792Z,59.73
2023-09-16T07:44:22.687Z,59.45
2023-09-16T07:46:50.624Z,58.65
2023-09-16T07:49:18.084Z,58.22
2023-09-16T07:51:47.403Z,58.08
2023-09-16T07:54:15.357Z,57.98
2023-09-16T07:56:42.910Z,58.11
2023-09-16T07:59:10.469Z,58.05
2023-09-16T08:01:38.281Z,58.24
2023-09-16T08:04:06.289Z,57.99
2023-09-16T08:06:34.122Z,57.78
2023-09-16T08:09:01.802Z,57.73
2023-09-16T08:11:29.563Z,57.41
2023-09-16T08:13:57.348Z,57.24
2023-09-16T08:16:25.200Z,56.49
2023-09-16T08:18:52.679Z,55.92
2023-09-16T08:21:20.485Z,55.42
2023-09-16T08:23:48.119Z,54.92
2023-09-16T08:26:15.736Z,53.99
2023-09-16T08:28:43.466Z,53.67
2023-09-16T08:31:11.159Z,52.96
2023-09-16T08:33:38.942Z,52.09
2023-09-16T08:36:06.828Z,52.19
2023-09-16T08:38:34.243Z,51.40
2023-09-16T08:41:18.945Z,50.65
2023-09-16T08:43:48.877Z,50.92
2023-09-16T08:46:18.307Z,50.55
2023-09-16T08:48:47.687Z,50.26
2023-09-16T08:51:18.579Z,50.33
2023-09-16T08:53:47.953Z,50.11
2023-09-16T08:56:15.985Z,49.77
2023-09-16T08:58:45.568Z,49.86
2023-09-16T09:01:17.490Z,49.17
2023-09-16T09:03:45.537Z,49.09
2023-09-16T09:06:23.250Z,49.07
2023-09-16T09:08:44.562Z,48.81
2023-09-16T09:11:14.605Z,48.26
2023-09-16T09:13:43.666Z,48.15
2023-09-16T09:16:20.147Z,48.06
2023-09-16T09:18:50.409Z,47.96
2023-09-16T09:21:18.698Z,47.73
2023-09-16T09:23:46.086Z,47.40
2023-09-16T09:26:15.212Z,47.12
2023-09-16T09:28:49.641Z,46.80
2023-09-16T09:31:17.603Z,47.00
2023-09-16T09:33:48.988Z,46.83
2023-09-16T09:36:18.724Z,46.78
2023-09-16T09:38:47.986Z,46.95
2023-09-16T09:41:16.291Z,46.71
2023-09-16T09:43:44.020Z,46.73
2023-09-16T09:46:12.461Z,46.34
2023-09-16T09:48:40.879Z,46.39
2023-09-16T09:51:11.770Z,45.81
2023-09-16T09:53:41.346Z,45.47
2023-09-16T09:56:12.284Z,45.07
2023-09-16T09:58:41.693Z,46.00
2023-09-16T10:01:09.085Z,46.37
2023-09-16T10:03:36.787Z,46.75
2023-09-16T10:06:17.807Z,47.16
2023-09-16T10:08:47.328Z,47.20
2023-09-16T10:11:15.342Z,47.19
2023-09-16T10:13:42.927Z,46.24
2023-09-16T10:16:11.373Z,46.42
2023-09-16T10:18:39.099Z,46.43
2023-09-16T10:21:08.113Z,46.66
2023-09-16T10:23:38.176Z,46.69
2023-09-16T10:26:06.124Z,46.51
2023-09-16T10:28:39.372Z,46.09
2023-09-16T10:31:07.486Z,46.09
2023-09-16T10:33:36.391Z,45.81
2023-09-16T10:36:05.771Z,46.18
2023-09-16T10:38:35.258Z,46.09
2023-09-16T10:41:05.811Z,46.21
2023-09-16T10:43:33.878Z,46.55
2023-09-16T10:46:02.026Z,45.89
2023-09-16T10:48:29.776Z,46.12
2023-09-16T10:51:02.359Z,45.79
2023-09-16T10:53:37.067Z,45.31
2023-09-16T10:56:19.292Z,45.54
2023-09-16T10:58:52.003Z,46.19
2023-09-16T11:01:23.275Z,46.04
2023-09-16T11:03:56.399Z,45.79
2023-09-16T11:06:24.334Z,46.13
2023-09-16T11:08:52.521Z,46.67
2023-09-16T11:11:22.517Z,46.75
2023-09-16T11:13:51.381Z,46.60
2023-09-16T11:16:22.014Z,46.55
2023-09-16T11:18:51.981Z,46.79
2023-09-16T11:21:21.571Z,46.84
2023-09-16T11:23:49.777Z,46.87
2023-09-16T11:26:23.203Z,47.05
2023-09-16T11:28:54.414Z,47.09
2023-09-16T11:31:22.241Z,47.11
2023-09-16T11:33:50.227Z,47.42
2023-09-16T11:36:19.871Z,47.43
2023-09-16T11:38:58.689Z,47.44
2023-09-16T11:41:26.600Z,47.34
2023-09-16T11:43:54.679Z,47.32
2023-09-16T11:46:22.638Z,47.27
2023-09-16T11:49:04.015Z,47.26
2023-09-16T11:51:37.868Z,47.43
2023-09-16T11:54:06.051Z,47.65
2023-09-16T11:56:37.618Z,47.70
2023-09-16T11:59:05.533Z,47.89
2023-09-16T12:01:40.203Z,48.12
2023-09-16T12:04:11.417Z,48.25
2023-09-16T12:06:39.715Z,48.20
2023-09-16T12:09:10.866Z,48.20
2023-09-16T12:11:39.477Z,47.94
2023-09-16T12:14:08.079Z,47.66
2023-09-16T12:16:38.057Z,47.91
2023-09-16T12:19:06.424Z,47.86
2023-09-16T12:21:38.249Z,47.85
2023-09-16T12:24:06.797Z,47.75
2023-09-16T12:26:34.801Z,47.54
2023-09-16T12:29:02.153Z,46.80
2023-09-16T12:31:29.876Z,45.91
2023-09-16T12:33:57.782Z,46.35
2023-09-16T12:36:28.753Z,45.82
2023-09-16T12:39:00.014Z,45.78
2023-09-16T12:41:29.766Z,45.70
2023-09-16T12:43:59.036Z,45.45
2023-09-16T12:46:30.031Z,46.15
2023-09-16T12:48:59.120Z,45.90
2023-09-16T12:51:29.245Z,45.72
2023-09-16T12:53:59.415Z,45.74
2023-09-16T12:56:27.201Z,44.60
2023-09-16T12:58:54.842Z,44.70
2023-09-16T13:01:24.248Z,44.52
2023-09-16T13:03:52.691Z,44.73
2023-09-16T13:06:20.454Z,44.98
2023-09-16T13:08:48.739Z,45.02
2023-09-16T13:11:16.712Z,44.52
2023-09-16T13:13:44.403Z,44.41
2023-09-16T13:16:12.288Z,44.70
2023-09-16T13:18:41.309Z,44.98
2023-09-16T13:21:09.052Z,44.87
2023-09-16T13:23:36.868Z,45.00
2023-09-16T13:26:14.408Z,44.95
2023-09-16T13:28:58.040Z,45.30
2023-09-16T13:31:28.194Z,45.62
2023-09-16T13:34:00.238Z,45.80
2023-09-16T13:36:32.017Z,46.24
2023-09-16T13:39:01.708Z,46.50
2023-09-16T13:41:29.405Z,46.50
2023-09-16T13:43:56.853Z,46.78
2023-09-16T13:46:26.004Z,46.88
2023-09-16T13:48:54.943Z,46.96
2023-09-16T13:51:23.370Z,46.94
2023-09-16T13:53:54.004Z,47.10
2023-09-16T13:56:22.712Z,47.21
2023-09-16T13:58:50.794Z,47.32
2023-09-16T14:01:18.989Z,47.60
2023-09-16T14:03:46.827Z,47.72
2023-09-16T14:06:14.853Z,47.74
2023-09-16T14:08:42.321Z,48.02
2023-09-16T14:11:10.162Z,48.20
2023-09-16T14:13:38.966Z,48.10
2023-09-16T14:16:07.089Z,48.18
2023-09-16T14:18:34.757Z,48.21
2023-09-16T14:21:02.406Z,48.42
2023-09-16T14:23:30.051Z,48.83
2023-09-16T14:26:02.943Z,49.15
2023-09-16T14:28:30.179Z,49.44
2023-09-16T14:30:57.805Z,49.96
2023-09-16T14:33:25.530Z,49.91
2023-09-16T14:35:53.289Z,50.08
2023-09-16T14:38:20.983Z,50.36
2023-09-16T14:40:48.748Z,50.73
2023-09-16T14:43:16.482Z,51.14
2023-09-16T14:45:45.489Z,51.54
2023-09-16T14:48:13.756Z,51.70
2023-09-16T14:50:41.443Z,51.60
2023-09-16T14:53:09.732Z,51.70
2023-09-16T14:55:37.378Z,51.88
2023-09-16T14:58:06.955Z,51.96
2023-09-16T15:00:34.599Z,51.94
2023-09-16T15:03:02.959Z,51.97
2023-09-16T15:05:31.749Z,52.11
2023-09-16T15:07:59.466Z,52.22
2023-09-16T15:10:27.109Z,52.45
2023-09-16T15:12:54.923Z,52.68
2023-09-16T15:15:22.731Z,52.82
2023-09-16T15:17:50.442Z,52.83
2023-09-16T15:20:18.080Z,53.11
2023-09-16T15:22:45.755Z,53.20
2023-09-16T15:25:13.689Z,53.43
2023-09-16T15:27:43.097Z,53.57
2023-09-16T15:30:11.738Z,53.61
2023-09-16T15:32:45.872Z,53.72
2023-09-16T15:35:09.271Z,53.92
2023-09-16T15:37:36.762Z,54.06
2023-09-16T15:40:05.568Z,54.13
2023-09-16T15:42:33.477Z,54.09
2023-09-16T15:45:01.242Z,54.18
2023-09-16T15:47:28.996Z,54.34
2023-09-16T15:49:57.919Z,54.43
2023-09-16T15:52:26.343Z,54.48
2023-09-16T15:54:54.140Z,54.57
2023-09-16T15:57:21.869Z,54.64
2023-09-16T15:59:49.570Z,54.64
2023-09-16T16:02:17.514Z,54.70
2023-09-16T16:04:45.317Z,54.86
2023-09-16T16:07:14.919Z,54.94
2023-09-16T16:09:43.416Z,54.88
2023-09-16T16:12:11.058Z,54.88
2023-09-16T16:14:38.866Z,54.86
2023-09-16T16:17:17.750Z,54.87
2023-09-16T16:19:36.354Z,54.98
2023-09-16T16:22:04.445Z,55.10
2023-09-16T16:24:32.625Z,55.17
2023-09-16T16:27:03.346Z,55.11
2023-09-16T16:29:31.503Z,55.00
2023-09-16T16:31:59.382Z,55.04
2023-09-16T16:34:27.395Z,55.15
2023-09-16T16:36:55.219Z,55.11
2023-09-16T16:39:22.758Z,55.21
2023-09-16T16:41:50.333Z,55.21
2023-09-16T16:44:18.069Z,55.37
2023-09-16T16:46:48.264Z,55.38
2023-09-16T16:49:15.199Z,55.56
2023-09-16T16:51:42.831Z,55.62
2023-09-16T16:54:10.382Z,55.67
2023-09-16T16:56:38.092Z,55.73
2023-09-16T16:59:06.638Z,55.81
2023-09-16T17:01:34.819Z,55.89
2023-09-16T17:04:04.540Z,55.97
2023-09-16T17:06:32.291Z,56.09
2023-09-16T17:09:01.334Z,56.28
2023-09-16T17:11:29.492Z,56.30
2023-09-16T17:13:58.672Z,56.36
2023-09-16T17:16:26.698Z,56.48
2023-09-16T17:18:54.577Z,56.50
2023-09-16T17:21:22.154Z,56.69
2023-09-16T17:23:49.859Z,56.76
2023-09-16T17:26:17.717Z,56.92
2023-09-16T17:28:45.740Z,57.01
2023-09-16T17:31:13.560Z,57.11
2023-09-16T17:33:43.275Z,57.20
2023-09-16T17:36:12.128Z,57.31
2023-09-16T17:38:40.097Z,57.37
2023-09-16T17:41:08.405Z,57.42
2023-09-16T17:43:35.945Z,57.57
2023-09-16T17:46:03.361Z,57.63
2023-09-16T17:48:31.019Z,57.71
2023-09-16T17:51:01.347Z,57.75
2023-09-16T17:53:30.145Z,57.92
2023-09-16T17:55:58.363Z,57.94
2023-09-16T17:58:26.156Z,57.98
2023-09-16T18:00:54.120Z,58.00
2023-09-16T18:03:21.531Z,58.09
2023-09-16T18:05:50.574Z,58.15
2023-09-16T18:08:17.971Z,58.23
2023-09-16T18:10:46.413Z,58.32
2023-09-16T18:13:14.226Z,58.35
2023-09-16T18:15:42.098Z,58.46
2023-09-16T18:18:10.138Z,58.57
2023-09-16T18:20:37.757Z,58.62
2023-09-16T18:23:05.727Z,58.77
2023-09-16T18:25:33.544Z,58.84
2023-09-16T18:28:01.270Z,58.87
2023-09-16T18:30:29.041Z,58.94
2023-09-16T18:32:57.385Z,58.97
2023-09-16T18:35:30.140Z,58.99
2023-09-16T18:38:06.558Z,58.97
2023-09-16T18:40:27.324Z,59.06
2023-09-16T18:42:56.947Z,59.21
2023-09-16T18:45:25.389Z,59.30
2023-09-16T18:47:53.630Z,59.46
2023-09-16T18:50:21.782Z,59.60
2023-09-16T18:52:50.663Z,59.73
2023-09-16T18:55:18.391Z,59.88
2023-09-16T18:57:46.007Z,59.93
2023-09-16T19:00:14.859Z,59.98
2023-09-16T19:02:42.614Z,59.96
2023-09-16T19:05:11.181Z,60.01
2023-09-16T19:07:38.901Z,60.17
2023-09-16T19:10:08.271Z,60.21
2023-09-16T19:12:36.880Z,60.30
2023-09-16T19:15:05.558Z,60.38
2023-09-16T19:17:33.194Z,60.43
2023-09-16T19:20:01.533Z,60.47
2023-09-16T19:22:29.399Z,60.62
2023-09-16T19:24:58.655Z,60.80
2023-09-16T19:27:26.466Z,60.96
2023-09-16T19:29:54.040Z,61.12
2023-09-16T19:32:21.801Z,61.25
2023-09-16T19:34:51.091Z,61.37
2023-09-16T19:37:18.886Z,61.50
2023-09-16T19:39:46.429Z,61.56
2023-09-16T19:42:14.857Z,61.66
2023-09-16T19:44:42.480Z,61.64
2023-09-16T19:47:10.302Z,61.71
2023-09-16T19:49:38.248Z,61.66
2023-09-16T19:52:05.956Z,61.54
2023-09-16T19:54:33.826Z,61.48
2023-09-16T19:57:03.786Z,61.42
2023-09-16T19:59:31.401Z,61.38
2023-09-16T20:02:01.002Z,61.34
2023-09-16T20:04:29.083Z,61.38
2023-09-16T20:06:58.076Z,61.36
2023-09-16T20:09:26.504Z,61.43
2023-09-16T20:11:54.519Z,61.43
2023-09-16T20:14:22.213Z,61.49
2023-09-16T20:16:49.925Z,61.54
2023-09-16T20:19:19.254Z,61.60
2023-09-16T20:21:51.605Z,61.64
2023-09-16T20:24:19.452Z,61.63
2023-09-16T20:26:47.049Z,61.63
2023-09-16T20:29:14.668Z,61.64
2023-09-16T20:31:42.746Z,61.57
2023-09-16T20:34:12.324Z,61.72
2023-09-16T20:36:46.703Z,61.75
2023-09-16T20:39:14.650Z,61.83
2023-09-16T20:41:43.229Z,61.83
2023-09-16T20:44:12.637Z,61.88
2023-09-16T20:46:41.228Z,61.93
2023-09-16T20:49:09.042Z,61.96
2023-09-16T20:51:36.703Z,61.99
2023-09-16T20:54:04.857Z,62.05
2023-09-16T20:56:34.297Z,62.08
2023-09-16T20:59:01.911Z,62.13
2023-09-16T21:01:29.858Z,62.14
2023-09-16T21:03:57.814Z,62.21
2023-09-16T21:06:25.547Z,62.21
2023-09-16T21:08:53.171Z,62.13
2023-09-16T21:11:21.058Z,62.14
2023-09-16T21:13:48.987Z,62.18
2023-09-16T21:16:17.107Z,62.19
2023-09-16T21:18:44.907Z,62.27
2023-09-16T21:21:12.800Z,62.25
2023-09-16T21:23:40.382Z,62.28
2023-09-16T21:26:07.875Z,62.36
2023-09-16T21:28:36.790Z,62.43
2023-09-16T21:31:04.652Z,62.45
2023-09-16T21:33:33.287Z,62.46
2023-09-16T21:36:00.833Z,62.50
2023-09-16T21:38:28.660Z,62.53
2023-09-16T21:40:56.529Z,62.47
2023-09-16T21:43:24.621Z,62.58
2023-09-16T21:45:53.499Z,62.56
2023-09-16T21:48:21.197Z,62.76
2023-09-16T21:50:50.696Z,62.71
2023-09-16T21:53:20.733Z,62.66
2023-09-16T21:55:47.893Z,62.59
2023-09-16T21:58:15.583Z,62.58
2023-09-16T22:00:43.266Z,62.64
2023-09-16T22:03:10.964Z,62.56
2023-09-16T22:05:40.159Z,62.55
2023-09-16T22:08:08.016Z,62.56
2023-09-16T22:10:36.449Z,62.75
2023-09-16T22:13:04.913Z,62.95
2023-09-16T22:15:34.559Z,62.99
2023-09-16T22:18:03.870Z,63.11
2023-09-16T22:20:32.368Z,63.15
2023-09-16T22:23:00.359Z,63.20
2023-09-16T22:25:28.219Z,63.20
2023-09-16T22:27:56.719Z,63.24
2023-09-16T22:30:24.630Z,63.39
2023-09-16T22:32:52.366Z,63.59
2023-09-16T22:35:20.236Z,63.86
2023-09-16T22:37:48.051Z,63.96
2023-09-16T22:40:16.188Z,64.18
2023-09-16T22:42:44.176Z,64.28
2023-09-16T22:45:13.018Z,64.51
2023-09-16T22:47:42.790Z,64.73
2023-09-16T22:50:10.496Z,64.80
2023-09-16T22:52:38.271Z,65.00
2023-09-16T22:55:07.295Z,65.09
2023-09-16T22:57:34.924Z,65.15
2023-09-16T23:00:04.492Z,65.13
2023-09-16T23:02:35.252Z,65.34
2023-09-16T23:05:04.750Z,65.38
2023-09-16T23:07:32.790Z,65.45
2023-09-16T23:10:00.666Z,65.29
2023-09-16T23:12:28.415Z,65.06
2023-09-16T23:14:56.154Z,65.01
2023-09-16T23:17:23.836Z,65.04
2023-09-16T23:19:51.876Z,65.01
2023-09-16T23:22:19.339Z,64.99
2023-09-16T23:24:47.182Z,65.10
2023-09-16T23:27:15.514Z,65.11
2023-09-16T23:29:43.316Z,65.20
2023-09-16T23:32:11.011Z,65.26
2023-09-16T23:34:38.816Z,65.31
2023-09-16T23:37:06.457Z,65.30
2023-09-16T23:39:34.216Z,65.39
2023-09-16T23:42:02.048Z,65.46
2023-09-16T23:44:29.669Z,65.70
2023-09-16T23:46:57.633Z,65.70
2023-09-16T23:49:25.713Z,65.76
2023-09-16T23:51:53.177Z,65.81
2023-09-16T23:54:20.948Z,65.88
2023-09-16T23:56:48.883Z,65.94
2023-09-16T23:59:17.269Z,66.03
